createdAt,value
2023-03-23T15:58:20.263Z,37.04
2023-03-23T16:00:47.716Z,38.09
2023-03-23T16:03:19.818Z,38.53
2023-03-23T16:05:46.772Z,38.97
2023-03-23T16:08:16.144Z,39.05
2023-03-23T16:10:43.550Z,39.19
2023-03-23T16:13:11.489Z,39.32
2023-03-23T16:15:38.455Z,39.47
2023-03-23T16:18:09.388Z,39.62
2023-03-23T16:20:37.096Z,39.84
2023-03-23T16:23:04.597Z,39.92
2023-03-23T16:25:31.943Z,40.07
2023-03-23T16:27:59.576Z,40.14
2023-03-23T16:30:27.444Z,40.31
2023-03-23T16:32:57.643Z,40.14
2023-03-23T16:35:26.361Z,40.19
2023-03-23T16:38:07.728Z,40.28
2023-03-23T16:40:36.338Z,40.37
2023-03-23T16:43:09.168Z,40.55
2023-03-23T16:45:37.571Z,41.04
2023-03-23T16:48:04.984Z,41.64
2023-03-23T16:50:37.015Z,42.78
2023-03-23T16:53:04.333Z,43.24
2023-03-23T16:55:31.911Z,43.52
2023-03-23T16:58:15.318Z,43.51
2023-03-23T17:00:47.403Z,43.66
2023-03-23T17:03:15.620Z,43.92
2023-03-23T17:05:44.557Z,43.97
2023-03-23T17:08:12.549Z,44.23
2023-03-23T17:10:43.312Z,44.60
2023-03-23T17:13:12.507Z,44.61
2023-03-23T17:15:46.657Z,44.44
2023-03-23T17:18:15.322Z,44.59
2023-03-23T17:20:42.524Z,44.64
2023-03-23T17:23:09.815Z,44.73
2023-03-23T17:25:39.017Z,44.85
2023-03-23T17:28:08.478Z,45.05
2023-03-23T17:30:41.580Z,44.84
2023-03-23T17:33:11.392Z,45.18
2023-03-23T17:35:41.345Z,44.94
2023-03-23T17:38:18.397Z,44.27
2023-03-23T17:40:48.340Z,43.54
2023-03-23T17:43:18.526Z,43.78
2023-03-23T17:45:48.512Z,44.62
2023-03-23T17:48:17.337Z,45.34
2023-03-23T17:50:48.342Z,46.78
2023-03-23T17:53:24.633Z,47.56
2023-03-23T17:56:01.356Z,47.76
2023-03-23T17:58:30.415Z,47.88
2023-03-23T18:00:59.436Z,47.80
2023-03-23T18:03:29.367Z,47.81
2023-03-23T18:05:59.426Z,47.88
2023-03-23T18:08:28.877Z,47.94
2023-03-23T18:10:59.171Z,48.01
2023-03-23T18:13:28.324Z,48.06
2023-03-23T18:15:56.751Z,48.10
2023-03-23T18:18:26.384Z,48.19
2023-03-23T18:21:03.520Z,48.27
2023-03-23T18:23:43.072Z,47.79
2023-03-23T18:34:08.428Z,47.62
2023-03-23T18:36:38.405Z,47.67
2023-03-23T18:39:05.842Z,47.72
2023-03-23T18:41:33.144Z,47.76
2023-03-23T18:44:00.215Z,47.82
2023-03-23T18:46:27.258Z,47.90
2023-03-23T18:48:55.297Z,48.18
2023-03-23T18:51:22.195Z,48.24
2023-03-23T18:53:48.986Z,48.52
2023-03-23T18:56:16.214Z,48.89
2023-03-23T18:58:43.422Z,49.24
2023-03-23T19:01:11.990Z,49.51
2023-03-23T19:03:39.825Z,49.68
2023-03-23T19:06:07.751Z,49.83
2023-03-23T19:08:34.682Z,49.66
2023-03-23T19:11:07.538Z,49.42
2023-03-23T19:13:36.888Z,49.29
2023-03-23T19:16:04.882Z,49.18
2023-03-23T19:18:31.817Z,49.33
2023-03-23T19:21:13.440Z,49.92
2023-03-23T19:23:47.271Z,50.25
2023-03-23T19:26:23.642Z,50.46
2023-03-23T19:31:24.222Z,51.16
2023-03-23T19:33:52.473Z,51.56
2023-03-23T19:36:20.845Z,52.01
2023-03-23T19:38:50.299Z,51.93
2023-03-23T19:41:19.047Z,51.27
2023-03-23T19:43:46.159Z,51.55
2023-03-23T19:46:13.129Z,51.22
2023-03-23T19:48:46.721Z,51.45
2023-03-23T19:51:14.645Z,52.09
2023-03-23T19:53:41.785Z,52.43
2023-03-23T19:56:18.370Z,52.71
2023-03-23T19:58:45.539Z,52.32
2023-03-23T20:01:13.190Z,52.32
2023-03-23T20:04:04.288Z,52.21
2023-03-23T20:06:33.426Z,52.00
2023-03-23T20:09:01.267Z,51.79
2023-03-23T20:11:28.542Z,52.05
2023-03-23T20:13:56.161Z,51.99
2023-03-23T20:16:23.692Z,51.83
2023-03-23T20:18:50.848Z,51.67
2023-03-23T20:21:22.519Z,51.50
2023-03-23T20:23:51.477Z,51.28
2023-03-23T20:26:27.839Z,51.18
2023-03-23T20:28:55.226Z,51.04
2023-03-23T20:31:24.522Z,51.59
2023-03-23T20:34:00.791Z,51.46
2023-03-23T20:36:35.302Z,51.61
2023-03-23T20:39:07.650Z,51.70
2023-03-23T20:41:38.105Z,51.80
2023-03-23T20:44:06.574Z,51.39
2023-03-23T20:46:34.205Z,51.30
2023-03-23T20:49:01.608Z,51.33
2023-03-23T20:51:29.946Z,51.25
2023-03-23T20:54:01.601Z,51.28
2023-03-23T20:56:29.087Z,52.05
2023-03-23T20:58:56.917Z,52.17
2023-03-23T21:01:24.019Z,52.11
2023-03-23T21:03:53.581Z,52.18
2023-03-23T21:06:20.526Z,52.56
2023-03-23T21:08:48.305Z,52.16
2023-03-23T21:11:19.676Z,51.70
2023-03-23T21:13:47.320Z,52.27
2023-03-23T21:16:14.036Z,52.16
2023-03-23T21:18:41.407Z,51.88
2023-03-23T21:21:10.713Z,51.76
2023-03-23T21:23:38.311Z,51.77
2023-03-23T21:26:06.258Z,51.64
2023-03-23T21:28:33.746Z,51.72
2023-03-23T21:31:01.636Z,51.62
2023-03-23T21:33:31.796Z,51.76
2023-03-23T21:35:59.886Z,51.86
2023-03-23T21:38:31.908Z,51.67
2023-03-23T21:41:10.610Z,51.66
2023-03-23T21:43:39.419Z,51.75
2023-03-23T21:46:08.537Z,51.85
2023-03-23T21:48:38.214Z,51.99
2023-03-23T21:51:12.557Z,52.10
2023-03-23T21:53:53.556Z,52.29
2023-03-23T21:56:26.895Z,52.43
2023-03-23T21:58:54.458Z,52.64
2023-03-23T22:01:21.693Z,52.77
2023-03-23T22:03:48.487Z,52.97
2023-03-23T22:06:21.518Z,53.16
2023-03-23T22:08:48.382Z,53.35
2023-03-23T22:11:19.170Z,53.40
2023-03-23T22:13:51.183Z,53.61
2023-03-23T22:16:19.109Z,53.76
2023-03-23T22:18:46.292Z,53.93
2023-03-23T22:21:14.069Z,53.93
2023-03-23T22:23:42.337Z,54.09
2023-03-23T22:26:12.269Z,54.56
2023-03-23T22:28:40.229Z,54.89
2023-03-23T22:31:11.626Z,55.12
2023-03-23T22:33:38.835Z,55.35
2023-03-23T22:36:08.055Z,55.29
2023-03-23T22:38:39.166Z,55.49
2023-03-23T22:41:06.739Z,55.80
2023-03-23T22:43:34.620Z,55.99
2023-03-23T22:46:01.730Z,56.06
2023-03-23T22:48:33.713Z,56.21
2023-03-23T22:51:01.071Z,56.23
2023-03-23T22:53:28.116Z,56.44
2023-03-23T22:55:57.487Z,56.54
2023-03-23T22:58:25.484Z,56.70
2023-03-23T23:00:56.996Z,56.92
2023-03-23T23:03:24.715Z,57.11
2023-03-23T23:05:52.164Z,57.15
2023-03-23T23:08:24.429Z,57.27
2023-03-23T23:10:55.693Z,57.34
2023-03-23T23:13:23.009Z,57.48
2023-03-23T23:15:51.208Z,57.56
2023-03-23T23:18:20.094Z,57.61
2023-03-23T23:20:56.159Z,57.78
2023-03-23T23:23:23.836Z,57.86
2023-03-23T23:25:51.070Z,57.96
2023-03-23T23:28:20.063Z,58.01
2023-03-23T23:30:47.375Z,58.23
2023-03-23T23:33:18.354Z,58.40
2023-03-23T23:35:50.959Z,58.31
2023-03-23T23:38:18.588Z,58.46
2023-03-23T23:40:46.090Z,58.60
2023-03-23T23:43:15.784Z,59.01
2023-03-23T23:45:43.440Z,59.18
2023-03-23T23:48:13.139Z,59.27
2023-03-23T23:50:40.295Z,59.25
2023-03-23T23:53:09.378Z,59.29
2023-03-23T23:55:38.571Z,59.26
2023-03-23T23:58:05.827Z,59.28
